Time;durP1;ratioP1;P1;durP2;ratioP2;P2;SDS_P1;SDS_P2;PMS_P1;PMS_P2;Temp;Humidity;BMP_temperature;BMP_pressure;BME280_temperature;BME280_humidity;BME280_pressure;Samples;Min_cycle;Max_cycle;Signal;HPM_P1;HPM_P2
2023/07/03 00:00:50;;;;;;;5.78;3.60;;;27.60;54.00;;;;;;5111935;28;20024;-78
2023/07/03 00:03:16;;;;;;;2.60;2.20;;;27.60;54.00;;;;;;5111913;28;20046;-78
2023/07/03 00:05:43;;;;;;;4.82;3.85;;;27.70;54.00;;;;;;5112201;28;20044;-78
2023/07/03 00:08:10;;;;;;;3.50;3.08;;;27.70;54.10;;;;;;5109116;28;20083;-78
2023/07/03 00:10:37;;;;;;;5.18;3.88;;;27.60;54.10;;;;;;5111730;28;20059;-78
2023/07/03 00:13:03;;;;;;;4.38;3.85;;;27.60;54.10;;;;;;5111742;28;20387;-78
2023/07/03 00:15:30;;;;;;;4.80;4.07;;;27.80;54.10;;;;;;5111397;28;20034;-78
2023/07/03 00:17:56;;;;;;;4.40;4.00;;;27.60;54.10;;;;;;5111557;28;20043;-78
2023/07/03 00:20:22;;;;;;;8.18;5.38;;;27.70;54.10;;;;;;5110063;28;20364;-78
2023/07/03 00:22:48;;;;;;;5.00;4.40;;;27.60;54.20;;;;;;5111727;28;20390;-78
2023/07/03 00:25:15;;;;;;;4.50;4.00;;;27.60;54.20;;;;;;5111801;28;20039;-78
2023/07/03 00:27:41;;;;;;;9.18;4.00;;;27.60;54.20;;;;;;5111411;28;20479;-78
2023/07/03 00:30:07;;;;;;;5.90;4.13;;;27.60;54.20;;;;;;5093458;28;20062;-79
2023/07/03 00:32:33;;;;;;;4.35;3.95;;;27.80;54.30;;;;;;5111621;28;20051;-78
2023/07/03 00:34:59;;;;;;;5.85;3.58;;;27.60;54.30;;;;;;5109951;28;20547;-78
2023/07/03 00:37:26;;;;;;;4.40;3.60;;;27.60;54.30;;;;;;5113999;28;20081;-78
2023/07/03 00:39:52;;;;;;;5.85;3.70;;;27.60;54.30;;;;;;5113697;28;20028;-78
2023/07/03 00:42:21;;;;;;;4.57;3.90;;;27.80;54.20;;;;;;5115256;28;20046;-78
2023/07/03 00:44:47;;;;;;;6.40;3.95;;;27.70;54.30;;;;;;5115082;28;20130;-78
2023/07/03 00:47:13;;;;;;;4.53;3.92;;;27.80;54.20;;;;;;5096873;28;20118;-78
2023/07/03 00:49:40;;;;;;;4.63;4.15;;;27.70;54.20;;;;;;5113650;28;20043;-78
2023/07/03 00:52:09;;;;;;;4.60;3.97;;;27.70;54.20;;;;;;5096860;28;20036;-78
2023/07/03 00:54:35;;;;;;;4.78;4.28;;;27.80;54.10;;;;;;5114879;28;20043;-78
2023/07/03 00:57:01;;;;;;;5.18;4.20;;;27.70;54.10;;;;;;5113858;28;20032;-78
2023/07/03 00:59:27;;;;;;;6.50;4.22;;;27.70;54.10;;;;;;5096510;28;20122;-78
2023/07/03 01:02:00;;;;;;;4.43;3.95;;;27.90;54.10;;;;;;5113617;28;20475;-78
2023/07/03 01:04:45;;;;;;;8.07;4.45;;;27.90;54.10;;;;;;5114734;28;20039;-78
2023/07/03 01:07:14;;;;;;;3.65;2.78;;;27.90;54.10;;;;;;5114737;28;20032;-78
2023/07/03 01:09:48;;;;;;;6.78;5.00;;;27.80;54.00;;;;;;5113385;28;20039;-78
2023/07/03 01:12:16;;;;;;;6.75;4.72;;;27.90;54.00;;;;;;5113162;28;20031;-78
2023/07/03 01:14:45;;;;;;;8.35;4.85;;;27.90;54.00;;;;;;5113167;28;20467;-78
2023/07/03 01:17:13;;;;;;;5.63;4.10;;;27.80;53.90;;;;;;5096559;28;20065;-78
2023/07/03 01:19:44;;;;;;;5.47;4.43;;;27.90;53.90;;;;;;5113225;28;20118;-78
2023/07/03 01:22:13;;;;;;;6.07;3.88;;;28.00;54.40;;;;;;5113245;28;20027;-78
2023/07/03 01:24:50;;;;;;;6.22;4.93;;;27.90;53.90;;;;;;5113162;28;20081;-78
2023/07/03 01:27:20;;;;;;;3.50;3.15;;;28.00;54.40;;;;;;5112952;28;20028;-78
2023/07/03 01:29:50;;;;;;;3.85;2.90;;;27.90;53.80;;;;;;5112703;28;20031;-78
2023/07/03 01:32:20;;;;;;;4.05;3.58;;;28.00;54.40;;;;;;5112885;28;20039;-78
2023/07/03 01:34:49;;;;;;;5.13;3.67;;;27.90;53.80;;;;;;5094715;28;20104;-78
2023/07/03 01:37:17;;;;;;;4.35;3.95;;;28.10;54.30;;;;;;5113885;27;20487;-78
2023/07/03 01:39:45;;;;;;;4.68;3.83;;;28.00;54.20;;;;;;5113519;28;20039;-78
2023/07/03 01:42:13;;;;;;;4.85;4.10;;;28.00;54.20;;;;;;5113924;28;20469;-78
2023/07/03 01:44:39;;;;;;;4.13;3.83;;;28.00;54.20;;;;;;5113713;27;20059;-78
2023/07/03 01:47:09;;;;;;;8.85;5.22;;;28.00;54.20;;;;;;5112132;28;20096;-78
2023/07/03 01:49:36;;;;;;;4.90;3.83;;;28.10;54.20;;;;;;5113587;28;20449;-77
2023/07/03 01:52:23;;;;;;;4.13;3.72;;;28.00;54.10;;;;;;5113876;28;20538;-78
2023/07/03 01:55:10;;;;;;;3.78;3.45;;;28.00;54.10;;;;;;5114077;28;20028;-78
2023/07/03 01:57:40;;;;;;;4.57;4.18;;;28.10;54.00;;;;;;5113661;28;20505;-78
2023/07/03 02:00:09;;;;;;;9.02;4.40;;;28.10;54.00;;;;;;5095147;28;20039;-78
2023/07/03 02:02:42;;;;;;;6.72;4.22;;;28.00;54.00;;;;;;5113571;28;20035;-78
2023/07/03 02:05:16;;;;;;;3.70;3.38;;;28.00;54.00;;;;;;5112631;28;20046;-78
2023/07/03 02:07:43;;;;;;;5.53;4.13;;;28.10;54.00;;;;;;5113739;28;20035;-78
2023/07/03 02:10:10;;;;;;;7.32;4.45;;;28.10;54.00;;;;;;5112106;28;20036;-78
2023/07/03 02:12:36;;;;;;;4.85;3.97;;;28.00;54.00;;;;;;5112328;28;20560;-78
2023/07/03 02:15:04;;;;;;;6.22;3.72;;;27.90;53.40;;;;;;5111711;28;20031;-78
2023/07/03 02:17:32;;;;;;;3.97;3.65;;;28.10;54.00;;;;;;5112229;28;20044;-78
2023/07/03 02:19:58;;;;;;;4.43;3.70;;;28.00;54.00;;;;;;5113134;27;20053;-78
2023/07/03 02:22:24;;;;;;;3.95;3.55;;;28.00;54.00;;;;;;5112275;28;20554;-78
2023/07/03 02:24:50;;;;;;;5.75;4.05;;;28.00;54.00;;;;;;5111846;28;20028;-78
2023/07/03 02:27:19;;;;;;;4.78;4.38;;;28.00;54.00;;;;;;5113114;28;20071;-79
2023/07/03 02:29:46;;;;;;;4.43;3.58;;;27.90;53.40;;;;;;5112993;28;20707;-78
2023/07/03 02:32:12;;;;;;;6.13;3.88;;;27.90;53.40;;;;;;5110574;28;20051;-78
2023/07/03 02:34:39;;;;;;;7.35;3.75;;;28.00;54.00;;;;;;5093342;28;20099;-78
2023/07/03 02:37:05;;;;;;;4.35;3.95;;;27.90;53.50;;;;;;5069396;28;20520;-78
2023/07/03 02:39:31;;;;;;;4.60;3.70;;;27.90;53.50;;;;;;5069736;28;20090;-78
2023/07/03 02:41:57;;;;;;;6.00;3.17;;;28.00;54.00;;;;;;5069996;28;20432;-78
2023/07/03 02:44:23;;;;;;;5.15;3.28;;;27.90;53.50;;;;;;5069603;28;20059;-78
2023/07/03 02:46:49;;;;;;;4.55;4.13;;;28.00;54.00;;;;;;5069730;28;20045;-78
2023/07/03 02:49:16;;;;;;;4.63;3.95;;;28.00;54.00;;;;;;5069488;28;20500;-78
2023/07/03 02:51:44;;;;;;;5.20;3.47;;;27.90;53.50;;;;;;5052808;28;20040;-78
2023/07/03 02:54:10;;;;;;;4.60;3.38;;;28.00;54.00;;;;;;5069625;28;20034;-78
2023/07/03 02:56:37;;;;;;;4.18;3.40;;;28.00;54.00;;;;;;5052715;28;20515;-78
2023/07/03 02:59:04;;;;;;;3.38;3.08;;;28.00;54.00;;;;;;5068341;28;20041;-78
2023/07/03 03:01:34;;;;;;;4.15;3.30;;;28.00;54.00;;;;;;5069409;28;20163;-78
2023/07/03 03:04:02;;;;;;;5.50;3.53;;;28.00;54.00;;;;;;5086300;28;20043;-78
2023/07/03 03:06:29;;;;;;;3.83;3.35;;;28.10;54.00;;;;;;5072618;28;20036;-78
2023/07/03 03:08:55;;;;;;;4.65;3.35;;;28.00;54.00;;;;;;5109151;28;20043;-78
2023/07/03 03:11:21;;;;;;;3.88;3.47;;;27.90;53.40;;;;;;5111142;28;20033;-78
2023/07/03 03:13:50;;;;;;;3.97;3.35;;;28.00;54.00;;;;;;5111124;28;20034;-78
2023/07/03 03:16:16;;;;;;;4.13;3.10;;;28.10;54.00;;;;;;5110944;28;20471;-78
2023/07/03 03:18:42;;;;;;;4.88;4.05;;;28.00;53.90;;;;;;5112103;28;20426;-78
2023/07/03 03:21:08;;;;;;;3.53;3.20;;;28.00;53.90;;;;;;5110844;28;20057;-78
2023/07/03 03:23:34;;;;;;;3.90;3.45;;;28.00;54.00;;;;;;5094076;28;20522;-78
2023/07/03 03:26:00;;;;;;;4.05;3.35;;;28.00;54.00;;;;;;5110616;28;20042;-78
2023/07/03 03:28:26;;;;;;;3.53;3.22;;;28.00;53.90;;;;;;5093873;28;20091;-78
2023/07/03 03:30:52;;;;;;;4.97;4.47;;;28.00;54.00;;;;;;5110585;28;20042;-78
2023/07/03 03:33:18;;;;;;;3.92;3.35;;;28.00;54.00;;;;;;5110986;28;20028;-78
2023/07/03 03:35:45;;;;;;;6.35;4.03;;;27.90;53.40;;;;;;5112015;28;20493;-78
2023/07/03 03:38:11;;;;;;;3.28;2.97;;;27.90;53.40;;;;;;5110747;28;20032;-78
2023/07/03 03:40:37;;;;;;;5.22;3.30;;;28.00;54.00;;;;;;5111570;28;20402;-79
2023/07/03 03:43:06;;;;;;;4.15;3.13;;;27.90;53.50;;;;;;5110636;28;20462;-78
2023/07/03 03:45:32;;;;;;;6.10;4.18;;;28.00;54.00;;;;;;5111708;28;20044;-78
2023/07/03 03:47:58;;;;;;;2.90;2.47;;;27.90;53.50;;;;;;5092700;28;20394;-78
2023/07/03 03:50:26;;;;;;;3.55;3.22;;;28.00;54.10;;;;;;5110516;28;20028;-78
2023/07/03 03:52:52;;;;;;;4.03;3.50;;;28.00;54.10;;;;;;5093465;28;20036;-78
2023/07/03 03:55:18;;;;;;;3.53;2.90;;;27.90;53.60;;;;;;5110702;28;20058;-78
2023/07/03 03:57:48;;;;;;;1.92;1.83;;;27.90;53.60;;;;;;5093377;28;20046;-78
2023/07/03 04:00:16;;;;;;;1.80;1.70;;;27.90;53.60;;;;;;5092081;28;20047;-79
2023/07/03 04:02:43;;;;;;;2.47;1.77;;;27.80;53.60;;;;;;5091959;28;20044;-78
2023/07/03 04:05:09;;;;;;;2.88;1.75;;;28.00;54.20;;;;;;5109224;28;20475;-78
2023/07/03 04:07:35;;;;;;;3.50;3.20;;;28.00;54.10;;;;;;5109162;28;20035;-78
2023/07/03 04:10:03;;;;;;;4.15;3.40;;;28.00;54.10;;;;;;5110750;28;20039;-78
2023/07/03 04:12:29;;;;;;;11.02;3.67;;;28.00;54.10;;;;;;5113334;28;20076;-78
2023/07/03 04:14:55;;;;;;;5.93;3.50;;;28.00;54.10;;;;;;5096117;28;20122;-78
2023/07/03 04:17:21;;;;;;;4.25;3.45;;;27.90;53.60;;;;;;5096067;28;20603;-78
2023/07/03 04:19:47;;;;;;;4.80;2.85;;;28.00;54.10;;;;;;5113022;28;20395;-78
2023/07/03 04:22:13;;;;;;;3.63;3.25;;;27.90;53.50;;;;;;5113176;28;20495;-78
2023/07/03 04:24:39;;;;;;;6.25;3.47;;;28.00;54.10;;;;;;5095920;28;20487;-78
2023/07/03 04:27:08;;;;;;;5.55;3.72;;;27.90;53.60;;;;;;5113188;28;20035;-78
2023/07/03 04:29:34;;;;;;;5.05;3.50;;;28.00;54.10;;;;;;5112846;28;20030;-78
2023/07/03 04:32:00;;;;;;;7.35;3.80;;;27.90;53.60;;;;;;5114977;28;20051;-78
2023/07/03 04:34:25;;;;;;;4.43;3.13;;;27.90;53.60;;;;;;5115356;28;20032;-78
2023/07/03 04:36:51;;;;;;;5.05;4.10;;;27.90;53.60;;;;;;5115273;28;20119;-78
2023/07/03 04:39:17;;;;;;;4.25;3.53;;;27.80;53.60;;;;;;5115272;28;20044;-78
2023/07/03 04:41:44;;;;;;;7.20;4.43;;;27.90;53.60;;;;;;5115364;28;20032;-78
2023/07/03 04:44:12;;;;;;;7.55;3.25;;;27.90;53.60;;;;;;5096983;28;20403;-78
2023/07/03 04:46:39;;;;;;;8.95;3.92;;;27.80;53.60;;;;;;5113655;28;20035;-78
2023/07/03 04:49:05;;;;;;;5.57;3.53;;;27.90;53.60;;;;;;5115001;27;20491;-78
2023/07/03 04:51:32;;;;;;;5.50;3.70;;;28.00;54.20;;;;;;5115027;28;20043;-78
2023/07/03 04:53:59;;;;;;;3.88;3.50;;;27.90;53.70;;;;;;5115268;27;20425;-79
2023/07/03 04:56:27;;;;;;;4.30;3.88;;;28.00;54.20;;;;;;5114974;28;20047;-78
2023/07/03 04:58:53;;;;;;;4.85;3.53;;;28.00;54.30;;;;;;5114927;28;20114;-78
2023/07/03 05:01:19;;;;;;;3.97;3.65;;;27.90;53.70;;;;;;5114590;28;20028;-77
2023/07/03 05:03:45;;;;;;;6.13;3.85;;;27.90;53.70;;;;;;5114676;28;20027;-78
2023/07/03 05:06:11;;;;;;;4.35;3.78;;;27.90;53.70;;;;;;5113318;28;20027;-78
2023/07/03 05:08:37;;;;;;;4.38;3.65;;;27.90;53.70;;;;;;5114998;28;20406;-78
2023/07/03 05:11:03;;;;;;;4.95;3.47;;;27.90;53.70;;;;;;5114474;28;20028;-78
2023/07/03 05:13:29;;;;;;;4.18;3.72;;;28.00;54.30;;;;;;5114704;28;20434;-78
2023/07/03 05:15:55;;;;;;;4.88;3.92;;;27.90;53.70;;;;;;5114805;28;20490;-78
2023/07/03 05:18:22;;;;;;;5.15;3.38;;;27.90;53.70;;;;;;5114437;28;20039;-78
2023/07/03 05:20:49;;;;;;;3.80;3.47;;;27.90;53.70;;;;;;5114193;28;20147;-78
2023/07/03 05:23:15;;;;;;;3.78;3.33;;;27.90;53.70;;;;;;5113088;28;20019;-78
2023/07/03 05:25:42;;;;;;;3.88;3.40;;;28.00;54.20;;;;;;5114545;28;20084;-79
2023/07/03 05:28:08;;;;;;;5.20;4.03;;;28.00;54.20;;;;;;5114377;28;20031;-79
2023/07/03 05:30:34;;;;;;;4.68;4.03;;;27.90;53.70;;;;;;5114160;28;20040;-78
2023/07/03 05:33:00;;;;;;;5.07;3.47;;;27.90;53.70;;;;;;5114183;28;20027;-78
2023/07/03 05:35:26;;;;;;;4.10;3.45;;;27.90;53.70;;;;;;5132159;27;20479;-78
2023/07/03 05:37:52;;;;;;;3.35;3.05;;;27.90;53.70;;;;;;5132222;27;20047;-78
2023/07/03 05:40:19;;;;;;;6.57;3.67;;;27.80;53.70;;;;;;5131906;27;20368;-78
2023/07/03 05:42:45;;;;;;;3.72;3.40;;;27.80;53.70;;;;;;5132389;27;20027;-78
2023/07/03 05:45:12;;;;;;;4.15;3.33;;;27.90;53.70;;;;;;5131813;27;20053;-78
2023/07/03 05:47:38;;;;;;;3.75;3.38;;;27.80;53.70;;;;;;5132019;27;20039;-78
2023/07/03 05:50:04;;;;;;;7.70;3.38;;;27.80;53.80;;;;;;5131798;27;20126;-79
2023/07/03 05:52:33;;;;;;;5.45;4.20;;;28.00;54.30;;;;;;5114805;27;20078;-78
2023/07/03 05:54:59;;;;;;;7.18;3.47;;;27.80;53.80;;;;;;5114579;27;20047;-78
2023/07/03 05:57:25;;;;;;;6.38;4.50;;;27.80;53.80;;;;;;5131750;27;20043;-78
2023/07/03 05:59:51;;;;;;;3.95;3.38;;;27.80;53.80;;;;;;5131847;27;20038;-78
2023/07/03 06:02:19;;;;;;;5.72;3.60;;;27.80;53.90;;;;;;5114527;27;20031;-78
2023/07/03 06:04:46;;;;;;;4.32;3.78;;;27.80;53.90;;;;;;5090479;28;20051;-78
2023/07/03 06:07:12;;;;;;;8.32;4.38;;;27.80;53.90;;;;;;5074134;28;20059;-78
2023/07/03 06:09:38;;;;;;;5.10;4.32;;;27.80;53.90;;;;;;5070318;28;20053;-78
2023/07/03 06:12:04;;;;;;;4.15;3.75;;;27.90;53.90;;;;;;5070325;28;20036;-78
2023/07/03 06:14:31;;;;;;;6.15;3.80;;;27.80;53.80;;;;;;5053499;28;20040;-78
2023/07/03 06:16:58;;;;;;;6.30;3.95;;;28.00;54.40;;;;;;5070305;28;20131;-78
2023/07/03 06:19:25;;;;;;;5.70;3.90;;;28.00;54.40;;;;;;5070165;28;20075;-78
2023/07/03 06:21:51;;;;;;;5.55;3.88;;;27.90;53.90;;;;;;5070171;28;20529;-78
2023/07/03 06:24:17;;;;;;;4.68;3.45;;;27.80;53.70;;;;;;5070188;28;20064;-78
2023/07/03 06:26:44;;;;;;;3.85;3.50;;;28.00;54.40;;;;;;5070261;28;20504;-78
2023/07/03 06:29:12;;;;;;;3.97;3.30;;;27.90;53.80;;;;;;5069796;28;20095;-78
2023/07/03 06:31:38;;;;;;;5.30;4.13;;;27.90;53.80;;;;;;5070010;28;20396;-79
2023/07/03 06:34:04;;;;;;;4.03;3.58;;;27.80;53.80;;;;;;5053315;28;20067;-78
2023/07/03 06:36:31;;;;;;;2.90;2.60;;;27.90;53.80;;;;;;5069945;28;20044;-79
2023/07/03 06:38:59;;;;;;;6.20;3.83;;;27.80;53.80;;;;;;5070006;28;20381;-78
2023/07/03 06:41:30;;;;;;;4.97;4.18;;;27.80;53.80;;;;;;5077519;28;20043;-78
2023/07/03 06:43:56;;;;;;;4.63;3.72;;;27.80;53.80;;;;;;5112459;28;20055;-78
2023/07/03 06:46:24;;;;;;;2.42;2.22;;;27.80;53.80;;;;;;5112851;28;20038;-78
2023/07/03 06:48:50;;;;;;;3.97;3.08;;;27.80;53.80;;;;;;5112958;28;20028;-78
2023/07/03 06:51:16;;;;;;;4.03;3.60;;;27.80;53.90;;;;;;5112522;28;20108;-78
2023/07/03 06:53:42;;;;;;;4.10;3.22;;;27.70;53.90;;;;;;5112782;28;20039;-78
2023/07/03 06:56:09;;;;;;;3.45;3.03;;;27.60;53.90;;;;;;5112466;28;20033;-78
2023/07/03 06:58:35;;;;;;;2.97;2.13;;;27.90;53.90;;;;;;5111198;28;20035;-78
2023/07/03 07:01:10;;;;;;;2.55;1.63;;;27.90;54.00;;;;;;5112403;28;20035;-78
2023/07/03 07:03:36;;;;;;;2.67;2.47;;;27.80;54.00;;;;;;5112440;28;20092;-78
2023/07/03 07:06:19;;;;;;;3.08;2.50;;;27.80;53.90;;;;;;5112355;28;20088;-78
2023/07/03 07:08:45;;;;;;;3.08;2.58;;;27.70;54.00;;;;;;5111070;28;20047;-78
2023/07/03 07:11:14;;;;;;;3.58;2.95;;;27.90;54.00;;;;;;5112413;28;20483;-78
2023/07/03 07:13:42;;;;;;;3.72;2.90;;;27.90;54.00;;;;;;5112687;28;20042;-78
2023/07/03 07:16:13;;;;;;;3.10;2.53;;;27.70;54.00;;;;;;5112014;28;20473;-78
2023/07/03 07:18:40;;;;;;;4.70;3.80;;;27.80;54.00;;;;;;5112321;27;20487;-78
2023/07/03 07:21:06;;;;;;;4.03;3.08;;;27.70;54.00;;;;;;5111926;28;20032;-78
2023/07/03 07:23:32;;;;;;;4.50;3.78;;;28.00;54.50;;;;;;5112057;28;20035;-78
2023/07/03 07:25:58;;;;;;;4.85;3.70;;;27.80;54.00;;;;;;5112561;28;20108;-78
2023/07/03 07:28:24;;;;;;;3.25;2.80;;;28.00;54.50;;;;;;5111980;28;20027;-78
2023/07/03 07:30:50;;;;;;;1.60;1.50;;;27.90;53.90;;;;;;5112029;28;20038;-79
2023/07/03 07:33:16;;;;;;;2.97;1.70;;;27.80;54.00;;;;;;5112078;28;20494;-78
2023/07/03 07:35:43;;;;;;;2.38;2.17;;;27.90;54.00;;;;;;5111951;28;20375;-78
2023/07/03 07:38:11;;;;;;;3.40;3.05;;;27.90;53.90;;;;;;5111938;28;20398;-79
2023/07/03 07:40:37;;;;;;;2.10;1.65;;;27.80;54.00;;;;;;5112058;28;20475;-79
2023/07/03 07:43:03;;;;;;;3.08;2.80;;;27.80;53.90;;;;;;5111770;28;20039;-78
2023/07/03 07:45:30;;;;;;;3.33;2.85;;;27.70;54.00;;;;;;5111465;28;20464;-78
2023/07/03 07:47:56;;;;;;;2.65;2.17;;;27.70;54.00;;;;;;5111896;28;20035;-78
2023/07/03 07:50:23;;;;;;;5.13;3.42;;;27.70;53.90;;;;;;5111649;28;20425;-78
2023/07/03 07:52:49;;;;;;;5.72;4.20;;;27.80;54.00;;;;;;5111756;28;20442;-78
2023/07/03 07:55:16;;;;;;;3.90;3.30;;;27.80;54.00;;;;;;5111442;28;20039;-78
2023/07/03 07:57:42;;;;;;;4.30;3.78;;;27.80;54.00;;;;;;5111862;28;20040;-78
2023/07/03 08:00:09;;;;;;;3.65;3.00;;;27.70;54.10;;;;;;5111800;28;20039;-76
2023/07/03 08:02:40;;;;;;;2.35;2.03;;;27.80;54.10;;;;;;5112639;28;20024;-78
2023/07/03 08:05:08;;;;;;;2.03;1.83;;;27.80;54.10;;;;;;5111568;28;20047;-78
2023/07/03 08:07:34;;;;;;;5.35;3.80;;;27.90;54.10;;;;;;5111550;28;20085;-78
2023/07/03 08:10:00;;;;;;;4.10;2.80;;;27.90;54.10;;;;;;5111785;28;20042;-78
2023/07/03 08:12:26;;;;;;;4.32;3.92;;;27.80;54.10;;;;;;5111411;28;20031;-78
2023/07/03 08:14:52;;;;;;;4.15;3.75;;;27.90;54.10;;;;;;5111734;28;20471;-78
2023/07/03 08:17:18;;;;;;;6.47;3.85;;;27.90;54.10;;;;;;5111580;28;20031;-78
2023/07/03 08:19:44;;;;;;;3.47;2.42;;;27.80;54.10;;;;;;5111440;28;20042;-78
2023/07/03 08:22:10;;;;;;;1.85;1.75;;;27.90;54.10;;;;;;5111399;28;20039;-78
2023/07/03 08:24:36;;;;;;;3.92;3.10;;;27.80;54.10;;;;;;5111623;28;20035;-79
2023/07/03 08:27:02;;;;;;;3.50;3.20;;;27.90;54.10;;;;;;5111310;28;20047;-78
2023/07/03 08:29:28;;;;;;;3.33;1.95;;;27.90;54.10;;;;;;5110124;28;20511;-78
2023/07/03 08:31:54;;;;;;;6.88;3.90;;;27.90;54.00;;;;;;5108847;28;20060;-79
2023/07/03 08:34:20;;;;;;;1.60;1.50;;;27.80;54.00;;;;;;5111344;28;20042;-78
2023/07/03 08:36:46;;;;;;;2.42;2.13;;;27.90;54.00;;;;;;5110252;28;20089;-78
2023/07/03 08:39:12;;;;;;;2.90;2.30;;;27.80;54.00;;;;;;5111512;28;20058;-78
2023/07/03 08:41:46;;;;;;;3.97;2.60;;;27.90;54.00;;;;;;5110087;28;20043;-78
2023/07/03 08:44:12;;;;;;;3.85;3.30;;;27.80;54.00;;;;;;5111325;28;20138;-78
2023/07/03 08:46:39;;;;;;;3.15;2.40;;;27.80;54.00;;;;;;5111417;28;20110;-78
2023/07/03 08:49:06;;;;;;;3.38;2.47;;;27.90;54.00;;;;;;5111370;28;20119;-78
2023/07/03 08:51:37;;;;;;;1.63;1.52;;;27.80;54.00;;;;;;5111397;28;20038;-78
2023/07/03 08:54:18;;;;;;;4.70;3.38;;;27.80;54.00;;;;;;5110052;28;20073;-78
2023/07/03 08:56:44;;;;;;;1.70;1.60;;;27.70;54.00;;;;;;5112268;28;20028;-78
2023/07/03 08:59:10;;;;;;;1.92;1.35;;;27.90;54.00;;;;;;5114891;27;20527;-78
2023/07/03 09:01:45;;;;;;;4.25;3.50;;;27.70;54.10;;;;;;5114853;28;20111;-78
2023/07/03 09:04:35;;;;;;;3.05;2.55;;;27.80;54.10;;;;;;5115019;28;20039;-78
2023/07/03 09:07:28;;;;;;;5.00;3.65;;;27.80;54.20;;;;;;5114982;28;20092;-78
2023/07/03 09:09:54;;;;;;;;;;;27.80;54.20;;;;;;5113863;28;20058;-78
2023/07/03 09:12:38;;;;;;;1.90;1.67;;;27.80;54.20;;;;;;5113146;28;20639;-78
2023/07/03 09:15:28;;;;;;;2.38;1.90;;;27.80;54.20;;;;;;5114859;28;20036;-79
2023/07/03 09:17:58;;;;;;;4.18;3.45;;;27.70;54.20;;;;;;5114301;28;20502;-78
2023/07/03 09:20:25;;;;;;;2.53;1.88;;;27.80;54.20;;;;;;5114461;28;20519;-78
2023/07/03 09:22:59;;;;;;;1.98;1.77;;;27.80;54.20;;;;;;5113020;28;20468;-78
2023/07/03 09:26:00;;;;;;;2.72;2.00;;;27.70;54.20;;;;;;5114419;28;20031;-78
2023/07/03 09:28:26;;;;;;;3.60;2.65;;;27.90;54.10;;;;;;5071164;28;20039;-78
2023/07/03 09:30:55;;;;;;;1.60;1.50;;;27.80;54.20;;;;;;5071065;28;20075;-78
2023/07/03 09:33:21;;;;;;;1.85;1.75;;;27.90;54.20;;;;;;5071059;28;20400;-78
2023/07/03 09:35:47;;;;;;;4.40;3.63;;;27.90;54.10;;;;;;5054149;28;20032;-78
2023/07/03 09:38:24;;;;;;;3.30;2.30;;;27.90;54.10;;;;;;5037551;28;20040;-79
2023/07/03 09:40:53;;;;;;;3.25;2.95;;;27.90;54.10;;;;;;5070952;28;20033;-78
2023/07/03 09:43:26;;;;;;;3.55;2.10;;;27.80;54.10;;;;;;5053891;28;20036;-78
2023/07/03 09:46:13;;;;;;;1.50;1.40;;;27.80;54.10;;;;;;5071222;28;20545;-78
2023/07/03 09:48:39;;;;;;;1.75;1.65;;;27.80;54.10;;;;;;5070895;28;20036;-78
2023/07/03 09:51:16;;;;;;;2.95;1.60;;;27.80;54.10;;;;;;5070860;28;20098;-78
2023/07/03 09:53:42;;;;;;;3.47;2.63;;;27.90;54.10;;;;;;5070877;28;20032;-78
2023/07/03 09:56:17;;;;;;;1.65;1.55;;;27.70;54.10;;;;;;5053903;28;20052;-77
2023/07/03 09:58:47;;;;;;;1.48;1.38;;;27.70;54.10;;;;;;5070613;28;20048;-77
2023/07/03 10:01:26;;;;;;;2.38;1.77;;;27.80;54.10;;;;;;5070727;28;20437;-78
2023/07/03 10:04:08;;;;;;;1.50;1.40;;;27.80;54.10;;;;;;5070606;28;20044;-78
2023/07/03 10:06:35;;;;;;;2.67;1.73;;;27.80;54.10;;;;;;5095199;28;20058;-78
2023/07/03 10:09:17;;;;;;;4.15;3.35;;;27.70;54.20;;;;;;5113232;28;20031;-78
2023/07/03 10:11:53;;;;;;;1.70;1.60;;;27.70;54.20;;;;;;5113476;28;20532;-78
2023/07/03 10:14:28;;;;;;;3.38;2.08;;;27.60;54.20;;;;;;5113537;28;20040;-78
2023/07/03 10:16:55;;;;;;;1.48;1.38;;;27.70;54.20;;;;;;5113608;27;20080;-78
2023/07/03 10:19:21;;;;;;;2.20;2.03;;;27.80;54.30;;;;;;5113417;28;20040;-77
2023/07/03 10:21:48;;;;;;;4.82;3.15;;;27.90;54.20;;;;;;5113250;28;20399;-78
2023/07/03 10:24:15;;;;;;;2.10;1.58;;;27.80;54.20;;;;;;5113396;28;20143;-78
2023/07/03 10:26:53;;;;;;;1.52;1.42;;;27.80;54.20;;;;;;5113150;28;20446;-77
2023/07/03 10:29:41;;;;;;;2.00;1.90;;;27.80;54.20;;;;;;5113572;28;20027;-77
2023/07/03 10:32:14;;;;;;;4.03;2.20;;;27.70;54.20;;;;;;5112946;28;20137;-78
2023/07/03 10:35:03;;;;;;;2.15;1.70;;;27.90;54.20;;;;;;5112992;28;20085;-78
2023/07/03 10:37:34;;;;;;;1.98;1.80;;;27.80;54.20;;;;;;5113220;28;20035;-78
2023/07/03 10:40:12;;;;;;;1.70;1.60;;;27.80;54.20;;;;;;5113048;28;20057;-78
2023/07/03 10:42:48;;;;;;;2.55;1.98;;;27.70;54.20;;;;;;5112803;28;20459;-78
2023/07/03 10:45:15;;;;;;;3.15;2.85;;;27.90;54.20;;;;;;5112752;28;20092;-78
2023/07/03 10:47:47;;;;;;;1.75;1.65;;;27.90;54.20;;;;;;5111513;28;20321;-78
2023/07/03 10:50:14;;;;;;;1.65;1.55;;;27.70;54.20;;;;;;5112818;28;20096;-78
2023/07/03 10:52:54;;;;;;;3.13;2.85;;;27.80;54.20;;;;;;5112532;27;20138;-78
2023/07/03 10:55:47;;;;;;;2.72;2.17;;;27.80;54.20;;;;;;5094307;28;20522;-78
2023/07/03 10:58:29;;;;;;;;;;;27.70;54.20;;;;;;5113108;28;20035;-78
2023/07/03 11:01:08;;;;;;;4.63;3.83;;;27.70;54.20;;;;;;5112617;28;19908;-78
2023/07/03 11:04:05;;;;;;;4.82;3.88;;;27.80;54.20;;;;;;5112351;28;20036;-77
2023/07/03 11:06:57;;;;;;;3.28;2.58;;;27.80;54.20;;;;;;5112330;28;20031;-77
2023/07/03 11:10:08;;;;;;;1.60;1.50;;;27.70;54.20;;;;;;5112674;28;20035;-77
2023/07/03 11:13:09;;;;;;;3.00;2.67;;;27.80;54.20;;;;;;5052644;28;20190;-78
2023/07/03 11:15:46;;;;;;;1.70;1.60;;;27.70;54.30;;;;;;4993049;28;20041;-78
2023/07/03 11:18:30;;;;;;;2.63;2.03;;;27.60;54.30;;;;;;5009414;28;20046;-78
2023/07/03 11:20:56;;;;;;;2.25;1.80;;;27.80;54.30;;;;;;5008880;28;20030;-77
2023/07/03 11:23:58;;;;;;;2.45;2.25;;;27.70;54.30;;;;;;5009332;28;20045;-78
2023/07/03 11:26:45;;;;;;;1.52;1.42;;;27.70;54.40;;;;;;4970341;28;20106;-78
2023/07/03 11:29:12;;;;;;;2.25;1.85;;;27.80;54.30;;;;;;4970269;28;20054;-78
2023/07/03 11:31:41;;;;;;;1.70;1.60;;;27.80;54.30;;;;;;4970287;28;20056;-77
2023/07/03 11:34:10;;;;;;;2.67;1.60;;;27.80;54.40;;;;;;4970121;28;20078;-77
2023/07/03 11:36:43;;;;;;;1.67;1.58;;;27.80;54.30;;;;;;4970211;28;20051;-77
2023/07/03 11:39:20;;;;;;;2.28;1.90;;;27.70;54.30;;;;;;4970210;28;20049;-77
2023/07/03 11:42:06;;;;;;;1.73;1.50;;;27.90;54.30;;;;;;4970026;28;20038;-76
2023/07/03 11:44:45;;;;;;;4.25;3.53;;;28.00;54.90;;;;;;4970051;28;20101;-77
2023/07/03 11:47:35;;;;;;;1.65;1.55;;;27.90;54.30;;;;;;4970210;28;20078;-77
2023/07/03 11:50:05;;;;;;;3.78;3.17;;;27.80;54.30;;;;;;5004910;28;20175;-77
2023/07/03 11:52:38;;;;;;;1.88;1.60;;;27.90;54.20;;;;;;5048545;28;20552;-76
2023/07/03 11:55:07;;;;;;;1.58;1.48;;;27.70;54.20;;;;;;5015570;28;20136;-77
2023/07/03 11:57:37;;;;;;;1.77;1.67;;;27.80;54.20;;;;;;5048705;28;20615;-77
2023/07/03 12:00:15;;;;;;;1.75;1.65;;;27.80;54.20;;;;;;5071677;28;20040;-77
2023/07/03 12:02:54;;;;;;;1.50;1.40;;;27.70;54.20;;;;;;5110065;28;20043;-77
2023/07/03 12:05:42;;;;;;;4.95;4.00;;;27.80;54.20;;;;;;5111607;28;20118;-77
2023/07/03 12:08:12;;;;;;;1.40;1.30;;;27.70;54.20;;;;;;5111823;28;20054;-77
2023/07/03 12:10:42;;;;;;;1.52;1.42;;;27.80;54.20;;;;;;5111535;28;20062;-77
2023/07/03 12:13:37;;;;;;;1.60;1.50;;;27.70;54.20;;;;;;5111233;28;20063;-77
2023/07/03 12:16:06;;;;;;;1.65;1.42;;;27.70;54.20;;;;;;5110272;28;20062;-77
2023/07/03 12:18:34;;;;;;;5.05;2.72;;;27.70;54.20;;;;;;5111634;28;20082;-77
2023/07/03 12:21:02;;;;;;;1.77;1.67;;;27.80;54.30;;;;;;5111402;28;20120;-77
2023/07/03 12:23:31;;;;;;;1.88;1.77;;;27.80;54.30;;;;;;5111262;28;20093;-77
2023/07/03 12:26:11;;;;;;;1.65;1.52;;;27.80;54.40;;;;;;5111501;28;20114;-77
2023/07/03 12:28:38;;;;;;;1.52;1.42;;;27.80;54.40;;;;;;5111487;28;20067;-77
2023/07/03 12:31:20;;;;;;;1.95;1.75;;;27.80;54.40;;;;;;5112066;28;20036;-76
2023/07/03 12:33:52;;;;;;;1.48;1.38;;;27.60;54.40;;;;;;5114188;28;20047;-77
2023/07/03 12:36:27;;;;;;;1.60;1.50;;;27.80;54.40;;;;;;5115341;28;20127;-77
2023/07/03 12:38:54;;;;;;;2.13;1.70;;;27.80;54.40;;;;;;5115428;28;20035;-77
2023/07/03 12:41:30;;;;;;;4.38;3.83;;;27.70;54.40;;;;;;5115181;28;20031;-76
2023/07/03 12:43:57;;;;;;;2.33;1.75;;;27.80;54.40;;;;;;5115151;28;20055;-77
2023/07/03 12:46:32;;;;;;;2.20;2.00;;;27.80;54.40;;;;;;5115014;28;20035;-77
2023/07/03 12:49:08;;;;;;;1.70;1.60;;;27.80;54.40;;;;;;5114108;28;20036;-77
2023/07/03 12:51:42;;;;;;;1.55;1.40;;;27.90;54.40;;;;;;5115027;28;20051;-77
2023/07/03 12:54:10;;;;;;;2.00;1.80;;;27.90;54.40;;;;;;5114823;28;20032;-77
2023/07/03 12:56:37;;;;;;;2.03;1.65;;;27.90;54.30;;;;;;5114562;28;20046;-77
2023/07/03 12:59:07;;;;;;;4.72;3.83;;;27.90;54.30;;;;;;5113857;28;20129;-77
2023/07/03 13:01:35;;;;;;;1.60;1.50;;;27.90;54.30;;;;;;5114841;28;20483;-77